createdAt,value
2019-04-27T00:01:13.860Z,23.10
2019-04-27T00:03:53.997Z,23.20
2019-04-27T00:06:24.220Z,28.42
2019-04-27T00:08:54.700Z,25.02
2019-04-27T00:11:43.815Z,21.57
2019-04-27T00:14:14.236Z,26.42
2019-04-27T00:16:51.593Z,25.08
2019-04-27T00:19:37.174Z,24.80
2019-04-27T00:22:07.286Z,23.40
2019-04-27T00:24:38.058Z,26.55
2019-04-27T00:27:07.217Z,24.07
2019-04-27T00:29:36.312Z,24.70
2019-04-27T00:32:05.077Z,24.57
2019-04-27T00:34:34.106Z,26.75
2019-04-27T00:37:04.650Z,27.07
2019-04-27T00:39:44.892Z,24.47
2019-04-27T00:42:13.940Z,29.95
2019-04-27T00:44:43.008Z,24.60
2019-04-27T00:47:11.756Z,24.65
2019-04-27T00:49:41.235Z,24.55
2019-04-27T00:52:09.889Z,21.17
2019-04-27T00:54:38.409Z,22.90
2019-04-27T00:57:12.962Z,27.20
2019-04-27T00:59:59.380Z,25.27
2019-04-27T01:02:43.423Z,23.90
2019-04-27T01:05:13.672Z,24.80
2019-04-27T01:07:43.470Z,23.38
2019-04-27T01:10:13.487Z,21.85
2019-04-27T01:12:42.965Z,25.85
2019-04-27T01:15:13.595Z,22.77
2019-04-27T01:17:43.590Z,24.75
2019-04-27T01:20:12.528Z,24.95
2019-04-27T01:22:42.029Z,30.50
2019-04-27T01:25:10.549Z,32.58
2019-04-27T01:27:55.629Z,29.18
2019-04-27T01:30:25.710Z,29.37
2019-04-27T01:32:54.487Z,32.15
2019-04-27T01:35:25.261Z,27.40
2019-04-27T01:37:54.079Z,28.73
2019-04-27T01:40:22.540Z,30.12
2019-04-27T01:42:51.400Z,27.48
2019-04-27T01:45:19.826Z,26.55
2019-04-27T01:47:56.996Z,30.77
2019-04-27T01:50:25.792Z,30.35
2019-04-27T01:52:54.314Z,30.90
2019-04-27T01:55:29.729Z,29.40
2019-04-27T01:57:58.575Z,28.00
2019-04-27T02:00:39.668Z,29.23
2019-04-27T02:03:10.026Z,29.45
2019-04-27T02:05:40.456Z,31.23
2019-04-27T02:08:09.516Z,26.15
2019-04-27T02:10:39.642Z,27.48
2019-04-27T02:13:08.954Z,27.82
2019-04-27T02:15:39.487Z,28.73
2019-04-27T02:18:10.197Z,24.90
2019-04-27T02:20:38.862Z,26.57
2019-04-27T02:23:08.979Z,26.57
2019-04-27T02:25:39.612Z,26.57
2019-04-27T02:28:21.844Z,30.25
2019-04-27T02:30:52.426Z,27.07
2019-04-27T02:33:34.397Z,27.15
2019-04-27T02:36:14.902Z,27.55
2019-04-27T02:38:42.027Z,25.82
2019-04-27T02:41:10.967Z,28.70
2019-04-27T02:43:50.301Z,26.50
2019-04-27T02:46:19.989Z,22.98
2019-04-27T02:48:59.363Z,23.83
2019-04-27T02:51:27.395Z,24.10
2019-04-27T02:54:02.104Z,26.52
2019-04-27T02:56:30.859Z,22.40
2019-04-27T02:58:59.737Z,24.45
2019-04-27T03:01:30.794Z,21.02
2019-04-27T03:04:11.414Z,21.35
2019-04-27T03:06:41.175Z,20.35
2019-04-27T03:09:10.422Z,20.75
2019-04-27T03:11:42.332Z,18.98
2019-04-27T03:14:28.352Z,22.45
2019-04-27T03:16:53.119Z,20.12
2019-04-27T03:19:23.273Z,18.80
2019-04-27T03:21:56.389Z,18.27
2019-04-27T03:24:43.154Z,18.67
2019-04-27T03:27:12.814Z,18.85
2019-04-27T03:29:41.387Z,20.32
2019-04-27T03:32:12.527Z,16.15
2019-04-27T03:34:41.884Z,16.65
2019-04-27T03:37:10.455Z,16.02
2019-04-27T03:39:39.862Z,15.63
2019-04-27T03:42:10.487Z,17.15
2019-04-27T03:44:39.949Z,17.45
2019-04-27T03:47:12.232Z,16.35
2019-04-27T03:49:41.544Z,14.93
2019-04-27T03:52:24.363Z,15.75
2019-04-27T03:57:43.400Z,13.40
2019-04-27T04:00:13.562Z,14.10
2019-04-27T04:02:42.167Z,16.10
2019-04-27T04:05:10.765Z,15.90
2019-04-27T04:07:40.234Z,15.13
2019-04-27T04:10:10.802Z,12.65
2019-04-27T04:12:56.751Z,14.55
2019-04-27T04:15:33.125Z,16.00
2019-04-27T04:18:01.771Z,12.30
2019-04-27T04:20:30.586Z,14.20
2019-04-27T04:23:03.197Z,16.65
2019-04-27T04:25:33.105Z,17.35
2019-04-27T04:28:01.346Z,14.47
2019-04-27T04:30:33.284Z,11.53
2019-04-27T04:33:01.927Z,13.87
2019-04-27T04:35:33.136Z,12.03
2019-04-27T04:38:00.872Z,15.38
2019-04-27T04:40:46.329Z,13.45
2019-04-27T04:43:19.681Z,10.78
2019-04-27T04:45:50.122Z,12.30
2019-04-27T04:48:20.545Z,9.50
2019-04-27T04:50:54.806Z,12.40
2019-04-27T04:53:23.900Z,10.88
2019-04-27T04:55:52.461Z,10.20
2019-04-27T04:58:22.032Z,11.30
2019-04-27T05:00:50.714Z,11.50
2019-04-27T05:03:21.762Z,8.88
2019-04-27T05:05:50.047Z,9.60
2019-04-27T05:08:19.339Z,13.03
2019-04-27T05:10:50.387Z,10.70
2019-04-27T05:13:19.475Z,11.45
2019-04-27T05:16:06.292Z,12.63
2019-04-27T05:18:35.223Z,10.03
2019-04-27T05:21:08.795Z,11.85
2019-04-27T05:23:40.294Z,8.70
2019-04-27T05:26:09.505Z,8.48
2019-04-27T05:28:38.403Z,10.72
2019-04-27T05:31:22.003Z,10.48
2019-04-27T05:33:50.439Z,8.83
2019-04-27T05:36:19.399Z,8.95
2019-04-27T05:38:49.825Z,9.30
2019-04-27T05:41:18.850Z,7.65
2019-04-27T05:43:59.157Z,9.88
2019-04-27T05:46:49.331Z,10.55
2019-04-27T05:49:25.767Z,9.55
2019-04-27T05:51:55.230Z,8.60
2019-04-27T05:54:23.770Z,10.40
2019-04-27T05:56:52.193Z,9.80
2019-04-27T05:59:20.676Z,8.53
2019-04-27T06:01:49.400Z,7.83
2019-04-27T06:04:19.337Z,9.33
2019-04-27T06:06:49.883Z,12.00
2019-04-27T06:09:19.381Z,9.60
2019-04-27T06:11:48.648Z,9.65
2019-04-27T06:14:19.318Z,12.55
2019-04-27T06:16:49.374Z,8.85
2019-04-27T06:19:19.379Z,9.75
2019-04-27T06:21:49.816Z,8.95
2019-04-27T06:24:18.705Z,11.48
2019-04-27T06:26:47.131Z,10.75
2019-04-27T06:29:15.632Z,7.62
2019-04-27T06:31:44.062Z,11.00
2019-04-27T06:34:12.485Z,9.85
2019-04-27T06:36:48.870Z,11.43
2019-04-27T06:39:20.276Z,8.70
2019-04-27T06:41:48.966Z,11.40
2019-04-27T06:44:19.459Z,11.10
2019-04-27T06:46:48.982Z,9.50
2019-04-27T06:49:19.311Z,8.83
2019-04-27T06:51:49.616Z,10.03
2019-04-27T06:54:21.074Z,8.60
2019-04-27T06:56:48.738Z,8.93
2019-04-27T06:59:18.610Z,8.53
2019-04-27T07:01:48.865Z,10.95
2019-04-27T07:04:19.431Z,8.20
2019-04-27T07:06:53.915Z,13.95
2019-04-27T07:09:19.559Z,9.43
2019-04-27T07:11:49.423Z,10.25
2019-04-27T07:14:20.975Z,9.25
2019-04-27T07:16:50.823Z,8.80
2019-04-27T07:19:20.697Z,10.63
2019-04-27T07:21:59.386Z,11.60
2019-04-27T07:24:29.212Z,8.50
2019-04-27T07:26:59.401Z,7.08
2019-04-27T07:29:29.246Z,7.33
2019-04-27T07:31:59.626Z,9.35
2019-04-27T07:34:28.666Z,7.97
2019-04-27T07:36:59.757Z,7.92
2019-04-27T07:39:34.467Z,8.53
2019-04-27T07:42:02.926Z,10.05
2019-04-27T07:44:42.287Z,9.70
2019-04-27T07:47:21.589Z,10.63
2019-04-27T07:49:59.273Z,8.10
2019-04-27T07:52:28.984Z,10.50
2019-04-27T07:55:01.820Z,8.60
2019-04-27T07:59:59.681Z,8.15
2019-04-27T08:02:29.135Z,11.55
2019-04-27T08:04:59.448Z,11.43
2019-04-27T08:07:30.564Z,12.80
2019-04-27T08:10:01.104Z,10.90
2019-04-27T08:12:31.158Z,10.35
2019-04-27T08:15:06.162Z,9.90
2019-04-27T08:17:34.588Z,14.50
2019-04-27T08:20:03.146Z,8.55
2019-04-27T08:22:31.650Z,12.18
2019-04-27T08:25:00.173Z,12.33
2019-04-27T08:27:41.501Z,11.97
2019-04-27T08:30:12.949Z,11.88
2019-04-27T08:32:43.380Z,10.68
2019-04-27T08:35:22.602Z,9.45
2019-04-27T08:37:51.411Z,12.37
2019-04-27T08:40:19.836Z,9.45
2019-04-27T08:42:49.188Z,11.25
2019-04-27T08:45:19.306Z,10.25
2019-04-27T08:47:49.833Z,10.35
2019-04-27T08:50:21.625Z,9.80
2019-04-27T08:52:50.433Z,11.68
2019-04-27T08:55:43.192Z,15.13
2019-04-27T08:58:13.587Z,11.90
2019-04-27T09:00:42.161Z,13.93
2019-04-27T09:03:20.574Z,15.03
2019-04-27T09:05:55.400Z,11.28
2019-04-27T09:08:25.512Z,11.12
2019-04-27T09:10:55.595Z,9.28
2019-04-27T09:13:29.304Z,12.53
2019-04-27T09:16:06.445Z,14.25
2019-04-27T09:18:41.011Z,14.05
2019-04-27T09:21:10.598Z,11.22
2019-04-27T09:23:39.136Z,13.50
2019-04-27T09:26:09.549Z,14.83
2019-04-27T09:28:39.007Z,19.20
2019-04-27T09:31:22.946Z,13.05
2019-04-27T09:33:51.475Z,16.55
2019-04-27T09:36:20.873Z,10.58
2019-04-27T09:38:49.374Z,11.65
2019-04-27T09:41:19.743Z,11.50
2019-04-27T09:43:48.234Z,10.70
2019-04-27T09:46:16.680Z,12.93
2019-04-27T09:48:46.612Z,10.93
2019-04-27T09:51:16.383Z,11.53
2019-04-27T09:53:45.827Z,11.40
2019-04-27T09:56:16.366Z,11.25
2019-04-27T09:58:47.634Z,11.33
2019-04-27T10:01:17.999Z,8.53
2019-04-27T10:03:46.430Z,9.95
2019-04-27T10:06:16.375Z,8.35
2019-04-27T10:08:44.837Z,8.90
2019-04-27T10:11:19.177Z,10.35
2019-04-27T10:13:47.644Z,9.93
2019-04-27T10:16:16.122Z,9.93
2019-04-27T10:18:45.855Z,13.58
2019-04-27T10:21:16.195Z,11.80
2019-04-27T10:23:58.461Z,11.97
2019-04-27T10:26:26.938Z,8.88
2019-04-27T10:28:56.024Z,9.45
2019-04-27T10:31:25.810Z,7.78
2019-04-27T10:33:55.967Z,7.22
2019-04-27T10:36:40.068Z,9.65
2019-04-27T10:39:13.480Z,9.58
2019-04-27T10:41:42.243Z,11.95
2019-04-27T10:44:11.138Z,5.70
2019-04-27T10:46:45.394Z,7.58
2019-04-27T10:49:13.825Z,3.98
2019-04-27T10:51:42.280Z,5.80
2019-04-27T10:54:11.228Z,7.22
2019-04-27T10:56:57.069Z,2.33
2019-04-27T10:59:27.594Z,3.60
2019-04-27T11:01:56.357Z,3.90
2019-04-27T11:04:26.737Z,3.95
2019-04-27T11:06:57.177Z,5.00
2019-04-27T11:09:26.002Z,6.67
2019-04-27T11:11:56.491Z,5.25
2019-04-27T11:14:26.045Z,4.08
2019-04-27T11:17:09.353Z,4.42
2019-04-27T11:22:07.368Z,9.25
2019-04-27T11:24:35.723Z,9.00
2019-04-27T11:27:05.840Z,4.05
2019-04-27T11:29:36.034Z,6.97
2019-04-27T11:32:05.755Z,5.78
2019-04-27T11:34:52.560Z,4.25
2019-04-27T11:37:22.916Z,5.15
2019-04-27T11:40:10.741Z,9.98
2019-04-27T11:42:39.178Z,8.23
2019-04-27T11:45:08.125Z,6.03
2019-04-27T11:47:36.642Z,7.83
2019-04-27T11:50:08.197Z,5.60
2019-04-27T11:52:37.163Z,8.70
2019-04-27T11:55:06.171Z,9.60
2019-04-27T11:57:35.769Z,9.83
2019-04-27T12:00:12.857Z,7.85
2019-04-27T12:02:41.645Z,8.95
2019-04-27T12:05:10.370Z,15.58
2019-04-27T12:07:38.831Z,8.23
2019-04-27T12:10:07.333Z,11.83
2019-04-27T12:12:36.306Z,10.98
2019-04-27T12:15:07.178Z,9.48
2019-04-27T12:17:35.971Z,7.60
2019-04-27T12:20:07.753Z,8.08
2019-04-27T12:22:36.595Z,10.72
2019-04-27T12:25:06.500Z,11.53
2019-04-27T12:27:36.846Z,10.48
2019-04-27T12:30:16.238Z,7.17
2019-04-27T12:32:45.664Z,11.03
2019-04-27T12:35:14.256Z,14.73
2019-04-27T12:37:43.059Z,8.83
2019-04-27T12:40:26.873Z,14.68
2019-04-27T12:42:55.795Z,9.40
2019-04-27T12:45:24.225Z,10.03
2019-04-27T12:47:53.069Z,11.20
2019-04-27T12:50:21.510Z,11.90
2019-04-27T12:53:06.863Z,13.25
2019-04-27T12:55:46.483Z,10.30
2019-04-27T12:58:16.718Z,8.13
2019-04-27T13:00:58.587Z,9.80
2019-04-27T13:03:27.073Z,11.18
2019-04-27T13:05:55.606Z,12.50
2019-04-27T13:08:25.854Z,13.22
2019-04-27T13:10:55.412Z,9.85
2019-04-27T13:13:24.285Z,10.08
2019-04-27T13:15:52.711Z,10.93
2019-04-27T13:18:21.186Z,12.68
2019-04-27T13:20:49.950Z,14.10
2019-04-27T13:23:18.740Z,13.45
2019-04-27T13:25:53.951Z,14.35
2019-04-27T13:28:22.790Z,17.00
2019-04-27T13:30:51.269Z,13.62
2019-04-27T13:33:19.737Z,12.65
2019-04-27T13:35:48.182Z,10.10
2019-04-27T13:38:18.168Z,8.73
2019-04-27T13:40:48.658Z,12.93
2019-04-27T13:43:21.398Z,9.58
2019-04-27T13:46:00.699Z,14.58
2019-04-27T13:48:36.550Z,13.93
2019-04-27T13:51:07.084Z,14.63
2019-04-27T13:53:36.803Z,15.10
2019-04-27T13:56:17.577Z,15.00
2019-04-27T13:58:46.137Z,8.20
2019-04-27T14:01:14.618Z,11.18
2019-04-27T14:03:44.983Z,15.75
2019-04-27T14:06:13.182Z,16.85
2019-04-27T14:08:41.644Z,14.28
2019-04-27T14:11:10.087Z,11.83
2019-04-27T14:13:39.135Z,12.23
2019-04-27T14:16:08.673Z,16.17
2019-04-27T14:18:38.542Z,14.95
2019-04-27T14:21:07.161Z,14.87
2019-04-27T14:23:35.603Z,13.35
2019-04-27T14:26:04.164Z,11.90
2019-04-27T14:28:32.571Z,12.68
2019-04-27T14:31:01.545Z,12.93
2019-04-27T14:33:30.015Z,13.35
2019-04-27T14:35:59.425Z,13.35
2019-04-27T14:38:28.208Z,15.00
2019-04-27T14:40:59.236Z,14.80
2019-04-27T14:43:28.608Z,9.80
2019-04-27T14:45:58.332Z,10.28
2019-04-27T14:48:26.852Z,19.55
2019-04-27T14:50:55.639Z,12.10
2019-04-27T14:53:24.072Z,11.40
2019-04-27T14:55:52.610Z,14.13
2019-04-27T14:58:21.070Z,16.02
2019-04-27T15:00:49.997Z,11.95
2019-04-27T15:03:18.957Z,17.35
2019-04-27T15:05:49.719Z,20.40
2019-04-27T15:08:17.840Z,16.93
2019-04-27T15:10:53.824Z,17.62
2019-04-27T15:13:22.116Z,10.72
2019-04-27T15:15:50.597Z,11.43
2019-04-27T15:18:19.771Z,17.48
2019-04-27T15:20:48.707Z,12.20
2019-04-27T15:23:17.163Z,13.10
2019-04-27T15:25:47.153Z,9.85
2019-04-27T15:28:22.574Z,14.68
2019-04-27T15:30:59.541Z,5.75
2019-04-27T15:33:46.805Z,14.05
2019-04-27T15:36:36.098Z,9.08
2019-04-27T15:39:18.258Z,4.47
2019-04-27T15:42:03.284Z,6.03
2019-04-27T15:44:30.780Z,5.17
2019-04-27T15:47:03.589Z,3.92
2019-04-27T15:49:30.730Z,3.83
2019-04-27T15:52:00.187Z,7.03
2019-04-27T15:54:31.901Z,6.40
2019-04-27T15:56:59.531Z,4.53
2019-04-27T15:59:31.917Z,5.47
2019-04-27T16:01:58.211Z,4.47
2019-04-27T16:04:26.756Z,3.20
2019-04-27T16:07:02.020Z,3.30
2019-04-27T16:09:30.567Z,4.33
2019-04-27T16:12:09.552Z,2.30
2019-04-27T16:14:29.741Z,3.87
2019-04-27T16:16:58.855Z,2.85
2019-04-27T16:19:28.690Z,3.12
2019-04-27T16:21:59.107Z,4.03
2019-04-27T16:24:29.000Z,2.22
2019-04-27T16:26:59.146Z,6.28
2019-04-27T16:29:31.397Z,3.47
2019-04-27T16:31:58.424Z,4.50
2019-04-27T16:34:28.661Z,1.87
2019-04-27T16:37:00.658Z,4.53
2019-04-27T16:39:29.421Z,4.77
2019-04-27T16:41:58.684Z,6.03
2019-04-27T16:44:27.838Z,2.90
2019-04-27T16:46:58.258Z,5.92
2019-04-27T16:49:28.901Z,5.33
2019-04-27T16:51:59.055Z,7.08
2019-04-27T16:54:29.548Z,4.53
2019-04-27T16:57:04.926Z,6.75
2019-04-27T16:59:43.087Z,3.72
2019-04-27T17:02:01.524Z,7.55
2019-04-27T17:04:31.394Z,7.75
2019-04-27T17:07:00.074Z,4.75
2019-04-27T17:09:29.785Z,10.00
2019-04-27T17:11:59.290Z,7.37
2019-04-27T17:14:35.098Z,6.15
2019-04-27T17:17:03.765Z,9.68
2019-04-27T17:19:35.762Z,9.48
2019-04-27T17:22:04.375Z,7.17
2019-04-27T17:24:43.825Z,7.78
2019-04-27T17:27:06.496Z,9.10
2019-04-27T17:29:38.520Z,8.03
2019-04-27T17:32:08.558Z,12.20
2019-04-27T17:34:37.234Z,5.25
2019-04-27T17:37:05.811Z,6.90
2019-04-27T17:39:34.899Z,6.25
2019-04-27T17:42:03.574Z,8.85
2019-04-27T17:44:33.583Z,9.80
2019-04-27T17:47:05.194Z,10.85
2019-04-27T17:49:38.095Z,7.45
2019-04-27T17:52:08.824Z,7.33
2019-04-27T17:54:40.825Z,8.90
2019-04-27T17:57:14.523Z,4.58
2019-04-27T17:59:43.025Z,7.08
2019-04-27T18:02:11.857Z,6.75
2019-04-27T18:04:41.004Z,7.47
2019-04-27T18:07:16.141Z,6.37
2019-04-27T18:09:50.918Z,6.28
2019-04-27T18:12:23.506Z,8.30
2019-04-27T18:14:52.287Z,6.70
2019-04-27T18:17:22.041Z,5.70
2019-04-27T18:19:55.160Z,7.17
2019-04-27T18:22:28.184Z,9.25
2019-04-27T18:25:03.413Z,11.35
2019-04-27T18:27:33.615Z,8.18
2019-04-27T18:30:23.978Z,6.90
2019-04-27T18:33:02.044Z,7.97
2019-04-27T18:35:30.026Z,7.95
2019-04-27T18:38:01.610Z,6.53
2019-04-27T18:40:32.620Z,6.92
2019-04-27T18:43:14.214Z,7.55
2019-04-27T18:45:44.975Z,7.87
2019-04-27T18:48:23.693Z,13.65
2019-04-27T18:50:56.718Z,6.75
2019-04-27T18:53:30.649Z,6.12
2019-04-27T18:56:05.118Z,8.95
2019-04-27T18:58:30.017Z,11.10
2019-04-27T19:01:11.444Z,11.12
2019-04-27T19:03:40.094Z,13.38
2019-04-27T19:06:14.786Z,14.43
2019-04-27T19:08:43.671Z,11.85
2019-04-27T19:11:12.186Z,10.28
2019-04-27T19:13:40.835Z,14.73
2019-04-27T19:16:09.787Z,12.50
2019-04-27T19:18:39.906Z,14.23
2019-04-27T19:21:12.396Z,7.65
2019-04-27T19:23:40.822Z,10.53
2019-04-27T19:26:28.990Z,10.98
2019-04-27T19:29:01.854Z,9.23
2019-04-27T19:33:59.910Z,9.80
2019-04-27T19:36:31.195Z,10.80
2019-04-27T19:38:59.714Z,8.35
2019-04-27T19:41:56.624Z,10.82
2019-04-27T19:44:18.995Z,7.30
2019-04-27T19:46:49.227Z,11.05
2019-04-27T19:49:21.176Z,9.98
2019-04-27T19:51:50.100Z,11.38
2019-04-27T19:54:20.812Z,7.58
2019-04-27T19:56:50.010Z,6.42
2019-04-27T19:59:20.269Z,8.30
2019-04-27T20:01:50.331Z,4.78
2019-04-27T20:04:27.691Z,11.48
2019-04-27T20:06:56.229Z,7.42
2019-04-27T20:09:45.124Z,6.78
2019-04-27T20:12:13.807Z,8.60
2019-04-27T20:14:57.417Z,9.53
2019-04-27T20:17:27.833Z,8.43
2019-04-27T20:19:56.980Z,7.28
2019-04-27T20:22:41.483Z,8.88
2019-04-27T20:25:17.884Z,12.53
2019-04-27T20:27:49.452Z,7.72
2019-04-27T20:30:17.314Z,8.28
2019-04-27T20:32:46.451Z,7.45
2019-04-27T20:35:15.869Z,11.68
2019-04-27T20:37:48.912Z,9.73
2019-04-27T20:40:21.976Z,11.18
2019-04-27T20:42:51.599Z,5.90
2019-04-27T20:45:20.868Z,9.08
2019-04-27T20:47:52.655Z,9.88
2019-04-27T20:50:21.690Z,10.40
2019-04-27T20:52:51.918Z,12.73
2019-04-27T20:55:21.392Z,8.50
2019-04-27T20:57:59.583Z,9.60
2019-04-27T21:00:21.948Z,7.47
2019-04-27T21:03:01.843Z,9.28
2019-04-27T21:05:32.247Z,6.80
2019-04-27T21:08:07.789Z,8.65
2019-04-27T21:10:37.222Z,9.05
2019-04-27T21:13:05.652Z,7.80
2019-04-27T21:15:34.554Z,12.82
2019-04-27T21:18:03.379Z,7.42
2019-04-27T21:20:33.156Z,11.15
2019-04-27T21:23:02.057Z,7.70
2019-04-27T21:25:31.581Z,11.08
2019-04-27T21:28:16.576Z,7.62
2019-04-27T21:30:37.807Z,12.90
2019-04-27T21:33:12.801Z,7.83
2019-04-27T21:35:51.199Z,12.45
2019-04-27T21:38:28.801Z,7.12
2019-04-27T21:40:57.333Z,9.05
2019-04-27T21:43:32.800Z,6.15
2019-04-27T21:46:07.875Z,11.90
2019-04-27T21:48:36.309Z,8.95
2019-04-27T21:51:12.173Z,6.12
2019-04-27T21:53:51.496Z,8.55
2019-04-27T21:56:21.059Z,11.30
2019-04-27T21:58:51.123Z,10.65
2019-04-27T22:01:24.692Z,12.50
2019-04-27T22:03:54.085Z,9.98
2019-04-27T22:06:23.175Z,8.20
2019-04-27T22:08:52.542Z,9.20
2019-04-27T22:11:21.894Z,11.43
2019-04-27T22:13:51.203Z,12.13
2019-04-27T22:16:22.182Z,6.65
2019-04-27T22:18:51.956Z,7.65
2019-04-27T22:21:21.628Z,9.93
2019-04-27T22:24:16.945Z,11.03
2019-04-27T22:26:45.367Z,9.20
2019-04-27T22:29:18.270Z,10.10
2019-04-27T22:34:14.498Z,7.42
2019-04-27T22:36:42.956Z,5.62
2019-04-27T22:39:13.038Z,7.30
2019-04-27T22:41:43.520Z,9.63
2019-04-27T22:44:22.926Z,6.80
2019-04-27T22:46:53.058Z,9.23
2019-04-27T22:49:21.565Z,12.93
2019-04-27T22:51:51.280Z,11.65
2019-04-27T22:54:21.762Z,5.35
2019-04-27T22:56:52.000Z,8.10
2019-04-27T22:59:38.635Z,7.50
2019-04-27T23:02:14.508Z,8.15
2019-04-27T23:04:44.645Z,11.70
2019-04-27T23:07:13.524Z,13.53
2019-04-27T23:09:42.952Z,7.33
2019-04-27T23:12:12.019Z,7.80
2019-04-27T23:14:41.463Z,7.28
2019-04-27T23:17:22.529Z,8.20
2019-04-27T23:19:51.085Z,10.60
2019-04-27T23:22:21.278Z,10.25
2019-04-27T23:24:51.725Z,10.60
2019-04-27T23:27:21.582Z,13.43
2019-04-27T23:29:51.459Z,10.18
2019-04-27T23:32:23.735Z,8.93
2019-04-27T23:35:01.862Z,4.33
2019-04-27T23:37:30.330Z,12.40
2019-04-27T23:40:00.561Z,12.00
2019-04-27T23:42:28.899Z,10.10
2019-04-27T23:44:57.660Z,12.80
2019-04-27T23:47:26.151Z,8.75
2019-04-27T23:49:54.605Z,10.78
2019-04-27T23:52:25.141Z,9.83
2019-04-27T23:54:53.745Z,12.37
2019-04-27T23:57:22.172Z,10.45
2019-04-27T23:59:51.720Z,8.68
